Time;durP1;ratioP1;P1;durP2;ratioP2;P2;SDS_P1;SDS_P2;PMS_P1;PMS_P2;Temp;Humidity;BMP_temperature;BMP_pressure;BME280_temperature;BME280_humidity;BME280_pressure;Samples;Min_cycle;Max_cycle;Signal;HPM_P1;HPM_P2
2023/07/12 00:00:30;;;;;;;15.77;14.07;;;27.70;78.80;;;;;;5030172;28;20499;-57
2023/07/12 00:03:17;;;;;;;;;;;27.60;79.00;;;;;;5032498;28;20029;-53
2023/07/12 00:06:11;;;;;;;15.85;14.00;;;27.50;79.20;;;;;;5049859;28;19924;-58
2023/07/12 00:08:57;;;;;;;18.92;14.95;;;27.40;79.70;;;;;;5047705;28;20022;-59
2023/07/12 00:11:43;;;;;;;17.05;15.52;;;27.40;79.70;;;;;;5011742;28;20183;-58
2023/07/12 00:14:28;;;;;;;16.85;15.15;;;27.40;79.70;;;;;;5012559;28;20058;-58
2023/07/12 00:17:15;;;;;;;17.20;15.43;;;27.30;79.90;;;;;;5019610;28;20056;-55
2023/07/12 00:20:01;;;;;;;17.17;15.45;;;27.30;79.60;;;;;;5051822;28;20036;-58
2023/07/12 00:22:47;;;;;;;17.10;15.35;;;27.20;79.50;;;;;;5052541;28;20029;-57
2023/07/12 00:25:33;;;;;;;16.38;14.68;;;27.30;79.60;;;;;;5051824;28;20017;-56
2023/07/12 00:28:25;;;;;;;17.45;15.65;;;27.30;79.80;;;;;;5052189;28;20120;-57
2023/07/12 00:31:11;;;;;;;17.38;15.65;;;27.30;80.10;;;;;;5043356;28;20064;-57
2023/07/12 00:33:57;;;;;;;17.83;15.18;;;27.20;80.10;;;;;;5032728;28;20029;-57
2023/07/12 00:36:43;;;;;;;16.67;14.90;;;27.20;80.20;;;;;;5030182;28;20405;-58
2023/07/12 00:39:28;;;;;;;16.70;15.13;;;27.20;80.60;;;;;;5030422;28;20033;-57
2023/07/12 00:42:27;;;;;;;16.60;15.00;;;27.20;80.80;;;;;;5032537;28;20037;-55
2023/07/12 00:45:15;;;;;;;17.80;15.60;;;27.20;81.30;;;;;;5029850;28;20417;-57
2023/07/12 00:48:01;;;;;;;16.73;15.10;;;27.10;81.50;;;;;;5032552;28;20044;-54
2023/07/12 00:50:48;;;;;;;17.17;15.38;;;27.10;81.50;;;;;;5055950;28;20068;-56
2023/07/12 00:53:34;;;;;;;16.80;14.65;;;27.10;81.50;;;;;;5033586;28;20029;-58
2023/07/12 00:56:20;;;;;;;16.50;14.90;;;27.10;82.20;;;;;;5037392;28;20033;-55
2023/07/12 00:59:19;;;;;;;17.13;15.30;;;27.20;81.90;;;;;;5032214;28;20040;-57
2023/07/12 01:02:06;;;;;;;16.95;14.88;;;27.20;81.60;;;;;;5030622;28;20025;-58
2023/07/12 01:04:57;;;;;;;17.30;15.50;;;27.20;82.10;;;;;;5032065;28;20029;-57
2023/07/12 01:07:43;;;;;;;21.73;16.15;;;27.10;82.00;;;;;;5030036;28;20494;-57
2023/07/12 01:10:29;;;;;;;18.52;15.32;;;27.00;81.60;;;;;;5029867;28;20033;-54
2023/07/12 01:13:21;;;;;;;17.30;14.93;;;26.90;81.60;;;;;;5028784;28;20655;-56
2023/07/12 01:16:07;;;;;;;17.83;15.02;;;26.80;81.90;;;;;;5028911;28;20060;-56
2023/07/12 01:18:53;;;;;;;17.33;15.52;;;26.50;83.00;;;;;;5030137;28;20022;-56
2023/07/12 01:21:58;;;;;;;17.13;15.10;;;26.40;82.90;;;;;;5029317;28;20724;-55
2023/07/12 01:24:43;;;;;;;17.85;15.25;;;26.40;82.60;;;;;;5029439;28;20706;-58
2023/07/12 01:27:30;;;;;;;17.88;15.13;;;26.40;82.90;;;;;;5033572;28;20076;-56
2023/07/12 01:30:19;;;;;;;20.52;16.15;;;26.50;82.10;;;;;;5035524;28;20025;-55
2023/07/12 01:33:05;;;;;;;18.30;15.00;;;26.40;81.80;;;;;;5028917;28;20051;-57
2023/07/12 01:35:51;;;;;;;16.30;14.60;;;26.40;82.40;;;;;;5049176;28;20032;-57
2023/07/12 01:38:37;;;;;;;18.95;15.98;;;26.20;82.70;;;;;;5049039;28;20048;-55
2023/07/12 01:41:24;;;;;;;17.33;15.40;;;26.10;83.20;;;;;;5050721;28;20030;-58
2023/07/12 01:44:10;;;;;;;20.17;14.90;;;26.10;83.30;;;;;;5052071;28;20025;-55
2023/07/12 01:46:56;;;;;;;17.15;15.25;;;26.00;83.50;;;;;;5050643;28;20068;-55
2023/07/12 01:49:43;;;;;;;17.20;15.10;;;26.00;83.90;;;;;;5048564;28;20025;-55
2023/07/12 01:52:28;;;;;;;17.95;15.43;;;26.00;83.10;;;;;;5051212;28;20025;-57
2023/07/12 01:55:14;;;;;;;18.35;15.00;;;26.00;82.80;;;;;;5034593;28;20594;-54
2023/07/12 01:58:00;;;;;;;18.50;14.50;;;25.90;82.40;;;;;;5030329;28;20518;-58
2023/07/12 02:00:47;;;;;;;17.20;14.63;;;25.90;82.30;;;;;;5029929;28;20033;-57
2023/07/12 02:03:34;;;;;;;16.08;14.10;;;25.90;81.50;;;;;;5031434;28;20040;-57
2023/07/12 02:06:20;;;;;;;16.95;14.63;;;25.80;81.70;;;;;;5031874;28;20029;-58
2023/07/12 02:09:06;;;;;;;16.98;13.73;;;25.90;81.30;;;;;;5029804;28;20029;-58
2023/07/12 02:11:52;;;;;;;15.10;13.07;;;25.90;81.60;;;;;;5031254;28;20542;-56
2023/07/12 02:14:38;;;;;;;14.95;13.18;;;25.90;81.40;;;;;;5030242;28;20386;-55
2023/07/12 02:17:24;;;;;;;16.15;12.90;;;25.90;81.30;;;;;;5028913;28;20026;-54
2023/07/12 02:20:12;;;;;;;14.50;11.57;;;25.90;81.10;;;;;;5029477;28;20033;-52
2023/07/12 02:22:58;;;;;;;14.40;12.32;;;25.90;80.80;;;;;;5030010;28;20109;-58
2023/07/12 02:25:44;;;;;;;12.30;11.02;;;25.90;80.80;;;;;;5029898;28;20212;-56
2023/07/12 02:28:30;;;;;;;12.52;11.23;;;25.90;80.90;;;;;;5031705;28;20038;-57
2023/07/12 02:31:21;;;;;;;12.90;11.35;;;25.90;81.00;;;;;;5035370;28;20080;-57
2023/07/12 02:34:07;;;;;;;14.07;10.90;;;25.90;81.10;;;;;;5040709;28;20588;-57
2023/07/12 02:36:53;;;;;;;12.80;11.57;;;25.90;81.10;;;;;;5058610;28;20052;-58
2023/07/12 02:39:39;;;;;;;12.40;10.45;;;25.90;81.10;;;;;;5055118;28;20104;-55
2023/07/12 02:42:25;;;;;;;11.48;10.18;;;25.90;81.20;;;;;;5054937;28;20041;-58
2023/07/12 02:45:11;;;;;;;11.63;10.48;;;26.00;81.30;;;;;;5054408;28;20059;-53
2023/07/12 02:47:57;;;;;;;12.43;10.60;;;26.10;81.20;;;;;;5052454;28;20052;-55
2023/07/12 02:50:43;;;;;;;12.60;9.35;;;26.10;80.60;;;;;;5054312;28;20025;-55
2023/07/12 02:53:30;;;;;;;11.73;9.73;;;26.20;80.40;;;;;;5053569;28;20060;-55
2023/07/12 02:56:16;;;;;;;10.73;9.55;;;26.20;80.10;;;;;;5014727;28;20030;-57
2023/07/12 02:59:02;;;;;;;11.57;9.43;;;26.20;80.20;;;;;;5012786;28;20061;-58
2023/07/12 03:01:48;;;;;;;12.65;9.75;;;26.30;80.20;;;;;;5013656;28;20032;-58
2023/07/12 03:04:34;;;;;;;10.13;8.85;;;26.30;80.20;;;;;;5015129;28;20037;-55
2023/07/12 03:07:20;;;;;;;11.50;9.50;;;26.30;80.00;;;;;;5012780;28;20041;-58
2023/07/12 03:10:07;;;;;;;15.57;9.75;;;26.30;80.00;;;;;;5034313;28;20067;-55
2023/07/12 03:12:54;;;;;;;11.38;10.18;;;26.30;80.00;;;;;;5043596;28;20097;-57
2023/07/12 03:15:39;;;;;;;10.75;9.57;;;26.40;79.90;;;;;;5034642;28;20088;-57
2023/07/12 03:18:26;;;;;;;11.13;9.55;;;26.40;79.90;;;;;;5033519;28;20025;-56
2023/07/12 03:21:12;;;;;;;11.80;9.90;;;26.40;79.80;;;;;;5032783;28;20018;-58
2023/07/12 03:23:58;;;;;;;13.25;11.70;;;26.40;79.60;;;;;;5033642;28;20116;-58
2023/07/12 03:26:44;;;;;;;11.77;9.85;;;26.30;79.70;;;;;;5033726;28;20082;-55
2023/07/12 03:29:30;;;;;;;10.10;9.10;;;26.30;79.60;;;;;;5036638;28;20438;-58
2023/07/12 03:32:15;;;;;;;9.85;8.73;;;26.30;79.70;;;;;;5038964;28;20368;-57
2023/07/12 03:35:01;;;;;;;10.68;9.60;;;26.40;79.80;;;;;;5033132;28;20150;-59
2023/07/12 03:37:47;;;;;;;10.55;8.93;;;26.20;80.00;;;;;;5045165;28;20033;-55
2023/07/12 03:40:33;;;;;;;11.73;8.93;;;26.20;80.60;;;;;;5051051;28;20105;-57
2023/07/12 03:43:19;;;;;;;9.68;7.70;;;26.10;81.00;;;;;;5051827;28;20033;-58
2023/07/12 03:46:05;;;;;;;11.57;8.25;;;26.00;81.60;;;;;;5052161;28;20104;-58
2023/07/12 03:48:51;;;;;;;12.07;7.47;;;25.90;81.90;;;;;;5052758;28;20366;-58
2023/07/12 03:51:37;;;;;;;7.97;6.75;;;25.90;82.00;;;;;;5033995;28;20525;-56
2023/07/12 03:54:23;;;;;;;7.22;6.38;;;25.90;82.00;;;;;;5032827;28;20124;-56
2023/07/12 03:57:09;;;;;;;9.30;6.10;;;25.90;82.10;;;;;;5059228;28;20025;-58
2023/07/12 03:59:55;;;;;;;6.93;5.72;;;25.80;82.40;;;;;;5033000;28;20033;-58
2023/07/12 04:02:41;;;;;;;10.00;5.85;;;25.80;82.50;;;;;;5032737;28;20397;-57
2023/07/12 04:05:27;;;;;;;6.93;5.20;;;25.70;82.50;;;;;;5032621;28;20034;-57
2023/07/12 04:08:13;;;;;;;10.70;5.80;;;25.80;82.40;;;;;;5032328;28;20113;-58
2023/07/12 04:11:00;;;;;;;7.55;5.35;;;25.80;82.20;;;;;;5031808;28;20017;-57
2023/07/12 04:13:46;;;;;;;6.28;4.90;;;25.70;82.50;;;;;;5051493;28;20501;-58
2023/07/12 04:16:32;;;;;;;6.07;4.90;;;25.70;82.50;;;;;;5050286;28;20025;-57
2023/07/12 04:19:17;;;;;;;6.82;5.05;;;25.70;83.00;;;;;;5032138;28;20390;-58
2023/07/12 04:22:04;;;;;;;6.90;5.20;;;25.70;82.80;;;;;;5032568;28;20033;-57
2023/07/12 04:24:52;;;;;;;5.93;4.90;;;25.70;82.90;;;;;;5032451;28;20091;-54
2023/07/12 04:27:38;;;;;;;6.03;4.55;;;25.70;83.10;;;;;;5032799;28;20079;-56
2023/07/12 04:30:24;;;;;;;7.00;4.63;;;25.70;83.10;;;;;;5032163;28;20489;-55
2023/07/12 04:33:10;;;;;;;6.93;4.72;;;25.70;83.70;;;;;;5032460;28;20041;-56
2023/07/12 04:35:56;;;;;;;8.70;4.88;;;25.70;82.90;;;;;;5032371;28;20037;-52
2023/07/12 04:38:42;;;;;;;7.28;4.68;;;25.80;82.90;;;;;;5032315;28;20025;-52
2023/07/12 04:41:28;;;;;;;8.57;5.15;;;25.90;82.90;;;;;;5032157;28;20036;-56
2023/07/12 04:44:14;;;;;;;7.90;5.22;;;25.80;83.20;;;;;;5032052;28;20021;-52
2023/07/12 04:47:00;;;;;;;5.28;4.70;;;25.70;83.80;;;;;;5031170;28;20034;-52
2023/07/12 04:49:46;;;;;;;6.18;4.65;;;25.70;84.00;;;;;;5036498;28;20021;-52
2023/07/12 04:52:32;;;;;;;5.60;5.03;;;25.60;84.20;;;;;;5033285;28;20033;-52
2023/07/12 04:55:24;;;;;;;6.47;4.93;;;25.60;84.40;;;;;;5033820;28;20036;-56
2023/07/12 04:58:10;;;;;;;5.93;4.38;;;25.60;85.20;;;;;;5038057;28;20470;-56
2023/07/12 05:00:56;;;;;;;6.47;4.45;;;25.60;84.60;;;;;;5039994;28;20520;-57
2023/07/12 05:03:42;;;;;;;5.95;5.13;;;25.60;84.70;;;;;;5050199;28;20067;-57
2023/07/12 05:06:27;;;;;;;8.15;5.15;;;25.60;84.60;;;;;;5050520;28;20703;-54
2023/07/12 05:09:14;;;;;;;6.18;4.60;;;25.60;84.80;;;;;;5050220;28;20029;-54
2023/07/12 05:11:59;;;;;;;6.47;4.80;;;25.70;84.40;;;;;;5050790;28;20021;-57
2023/07/12 05:14:45;;;;;;;5.35;4.65;;;25.60;84.80;;;;;;5012502;28;20030;-57
2023/07/12 05:17:32;;;;;;;6.55;4.60;;;25.60;84.90;;;;;;5013452;28;20030;-56
2023/07/12 05:20:19;;;;;;;8.25;5.00;;;25.80;85.10;;;;;;5012088;28;20034;-53
2023/07/12 05:23:05;;;;;;;5.30;4.30;;;25.70;85.00;;;;;;5011839;28;20091;-56
2023/07/12 05:25:53;;;;;;;9.63;4.72;;;25.70;85.20;;;;;;5012794;28;20034;-56
2023/07/12 05:28:39;;;;;;;5.97;4.53;;;25.70;85.30;;;;;;5032002;28;20029;-57
2023/07/12 05:31:24;;;;;;;6.40;4.57;;;25.70;85.30;;;;;;5039169;28;20085;-55
2023/07/12 05:34:10;;;;;;;6.25;4.85;;;25.60;85.40;;;;;;5034213;28;20172;-54
2023/07/12 05:36:56;;;;;;;5.40;4.28;;;25.60;85.30;;;;;;5031755;28;20555;-55
2023/07/12 05:39:42;;;;;;;6.50;4.78;;;25.60;85.80;;;;;;5032781;28;20451;-56
2023/07/12 05:42:28;;;;;;;7.47;4.82;;;25.60;85.80;;;;;;5033866;28;20037;-57
2023/07/12 05:45:14;;;;;;;18.50;5.97;;;25.50;85.70;;;;;;5032463;28;20026;-55
2023/07/12 05:48:00;;;;;;;6.10;4.70;;;25.60;86.00;;;;;;5031333;28;20205;-54
2023/07/12 05:50:52;;;;;;;5.35;4.22;;;25.60;85.30;;;;;;5031446;28;20144;-56
2023/07/12 05:53:38;;;;;;;6.72;4.25;;;25.40;86.10;;;;;;5031685;28;20076;-52
2023/07/12 05:56:23;;;;;;;6.43;4.25;;;25.20;86.20;;;;;;5030625;28;20040;-54
2023/07/12 05:59:10;;;;;;;9.40;4.57;;;25.30;86.20;;;;;;5030523;28;20061;-56
2023/07/12 06:01:56;;;;;;;6.28;4.15;;;25.20;86.20;;;;;;5031218;28;20025;-55
2023/07/12 06:04:42;;;;;;;7.82;4.20;;;25.20;87.00;;;;;;5034706;28;20064;-55
2023/07/12 06:07:28;;;;;;;6.03;4.15;;;25.10;87.10;;;;;;5060370;28;20053;-55
2023/07/12 06:10:15;;;;;;;5.68;4.32;;;25.20;86.90;;;;;;5051841;28;20036;-54
2023/07/12 06:13:01;;;;;;;5.63;4.13;;;25.20;87.70;;;;;;5052859;28;20112;-57
2023/07/12 06:15:47;;;;;;;5.93;4.50;;;25.20;87.80;;;;;;5053480;28;20493;-57
2023/07/12 06:18:33;;;;;;;7.57;4.50;;;25.10;88.50;;;;;;5052602;28;20393;-54
2023/07/12 06:21:19;;;;;;;6.05;4.38;;;25.10;88.80;;;;;;5053384;28;20021;-53
2023/07/12 06:24:08;;;;;;;6.63;4.78;;;25.20;88.90;;;;;;5053135;28;20033;-53
2023/07/12 06:26:54;;;;;;;8.15;5.20;;;25.20;88.90;;;;;;5052447;28;20099;-53
2023/07/12 06:29:41;;;;;;;8.73;5.10;;;25.30;89.30;;;;;;5052714;28;20060;-53
2023/07/12 06:32:27;;;;;;;6.32;5.70;;;25.30;89.60;;;;;;5054029;28;20136;-56
2023/07/12 06:35:13;;;;;;;5.80;5.10;;;25.40;89.60;;;;;;5052875;28;20048;-55
2023/07/12 06:37:59;;;;;;;9.18;5.20;;;25.40;89.70;;;;;;5037129;28;20040;-56
2023/07/12 06:40:45;;;;;;;8.05;5.35;;;25.50;89.60;;;;;;5042313;28;20034;-53
2023/07/12 06:43:31;;;;;;;9.15;5.60;;;25.40;90.10;;;;;;5036236;28;20044;-56
2023/07/12 06:46:17;;;;;;;11.00;5.80;;;25.50;90.30;;;;;;5052849;28;20069;-56
2023/07/12 06:49:03;;;;;;;11.18;5.70;;;25.50;90.50;;;;;;5052187;28;20461;-55
2023/07/12 06:51:49;;;;;;;9.93;6.28;;;25.40;90.70;;;;;;5054273;28;20029;-56
2023/07/12 06:54:35;;;;;;;8.57;5.85;;;25.60;90.60;;;;;;5056667;28;20033;-56
2023/07/12 06:57:21;;;;;;;8.45;5.97;;;25.60;90.60;;;;;;5056737;28;20657;-53
2023/07/12 07:00:09;;;;;;;9.38;6.18;;;25.80;90.50;;;;;;5052799;28;20404;-55
2023/07/12 07:02:55;;;;;;;8.98;6.50;;;25.80;90.60;;;;;;5053075;28;20025;-52
2023/07/12 07:05:44;;;;;;;10.35;6.30;;;25.90;90.70;;;;;;5057808;28;20079;-55
2023/07/12 07:08:31;;;;;;;10.45;7.65;;;25.90;90.70;;;;;;5058775;28;20025;-56
2023/07/12 07:11:17;;;;;;;10.23;6.22;;;25.70;90.80;;;;;;5042113;28;20441;-56
2023/07/12 07:14:04;;;;;;;9.60;6.22;;;25.60;91.10;;;;;;5038534;28;20029;-53
2023/07/12 07:16:50;;;;;;;10.57;7.05;;;25.60;91.20;;;;;;5052047;28;20021;-53
2023/07/12 07:19:36;;;;;;;10.50;6.57;;;25.50;91.40;;;;;;5051805;28;20436;-55
2023/07/12 07:22:22;;;;;;;10.13;6.50;;;25.40;91.40;;;;;;5052362;28;20064;-56
2023/07/12 07:25:08;;;;;;;10.32;6.78;;;25.40;91.60;;;;;;5047757;28;20106;-55
2023/07/12 07:27:55;;;;;;;13.02;7.47;;;25.50;91.60;;;;;;5036447;28;20092;-52
2023/07/12 07:30:41;;;;;;;10.80;7.30;;;25.50;91.60;;;;;;5049256;28;20044;-54
2023/07/12 07:33:27;;;;;;;11.50;7.50;;;25.20;91.40;;;;;;5045020;28;20047;-52
2023/07/12 07:36:14;;;;;;;8.88;7.22;;;24.90;91.30;;;;;;5044944;28;20037;-55
2023/07/12 07:39:00;;;;;;;10.10;6.38;;;24.60;91.70;;;;;;5033580;28;20025;-52
2023/07/12 07:41:46;;;;;;;8.18;6.32;;;24.40;91.70;;;;;;5037349;28;20055;-54
2023/07/12 07:44:33;;;;;;;8.02;6.43;;;24.20;91.90;;;;;;5047773;28;20048;-58
2023/07/12 07:47:20;;;;;;;8.75;5.40;;;24.20;92.10;;;;;;5050308;28;20545;-55
2023/07/12 07:50:07;;;;;;;11.48;6.30;;;23.80;92.50;;;;;;5053312;28;20160;-57
2023/07/12 07:52:53;;;;;;;12.32;6.70;;;23.50;95.40;;;;;;5046173;28;20029;-64
2023/07/12 07:55:44;;;;;;;8.13;6.40;;;22.60;99.20;;;;;;5047638;28;20033;-59
2023/07/12 07:58:30;;;;;;;7.88;5.90;;;22.30;99.90;;;;;;5049551;28;20238;-53
2023/07/12 08:01:16;;;;;;;5.93;5.32;;;22.40;99.90;;;;;;5031419;28;20037;-52
2023/07/12 08:04:03;;;;;;;7.15;5.03;;;22.60;99.90;;;;;;5012855;28;20038;-53
2023/07/12 08:06:50;;;;;;;6.10;5.07;;;22.80;99.90;;;;;;5011923;28;20026;-54
2023/07/12 08:09:36;;;;;;;6.22;5.07;;;22.80;99.90;;;;;;5012251;28;20070;-53
2023/07/12 08:12:22;;;;;;;10.65;5.55;;;22.90;99.90;;;;;;5012080;28;20403;-58
2023/07/12 08:15:09;;;;;;;7.32;5.32;;;23.00;99.90;;;;;;5025350;28;20025;-50
2023/07/12 08:17:55;;;;;;;7.45;5.20;;;23.00;99.90;;;;;;5032474;28;20034;-54
2023/07/12 08:20:42;;;;;;;5.32;4.43;;;23.10;99.90;;;;;;5030599;28;20029;-55
2023/07/12 08:23:29;;;;;;;7.05;5.28;;;23.40;99.90;;;;;;5049550;28;20413;-56
2023/07/12 08:26:17;;;;;;;6.05;4.80;;;23.50;99.90;;;;;;5033563;28;20032;-54
2023/07/12 08:29:04;;;;;;;7.45;5.35;;;23.60;99.90;;;;;;5030696;28;20034;-54
2023/07/12 08:31:50;;;;;;;6.18;5.00;;;23.70;99.90;;;;;;5031651;28;20509;-52
2023/07/12 08:34:36;;;;;;;6.72;5.07;;;23.80;99.90;;;;;;5031465;28;20030;-56
2023/07/12 08:37:24;;;;;;;6.03;4.82;;;23.60;99.90;;;;;;5032497;28;20064;-53
2023/07/12 08:40:13;;;;;;;6.60;4.57;;;23.60;99.80;;;;;;5032486;28;20029;-53
2023/07/12 08:43:00;;;;;;;5.70;4.72;;;23.50;99.40;;;;;;5032262;28;20029;-54
2023/07/12 08:45:48;;;;;;;7.15;4.82;;;23.70;99.70;;;;;;5032948;28;20586;-54
2023/07/12 08:48:35;;;;;;;7.55;5.00;;;23.60;99.10;;;;;;5032175;28;20022;-55
2023/07/12 08:51:32;;;;;;;5.78;4.55;;;23.90;99.50;;;;;;5028964;28;20060;-53
2023/07/12 08:54:25;;;;;;;8.75;5.10;;;24.30;99.30;;;;;;5035811;28;20036;-58
2023/07/12 08:57:19;;;;;;;5.88;4.57;;;24.50;98.30;;;;;;5024914;28;20033;-54
2023/07/12 09:00:21;;;;;;;7.82;4.75;;;24.40;98.90;;;;;;5033764;28;20029;-52
2023/07/12 09:03:07;;;;;;;7.57;4.85;;;24.50;97.80;;;;;;5047950;28;20472;-52
2023/07/12 09:05:53;;;;;;;6.85;5.10;;;24.50;97.60;;;;;;5032349;28;20441;-64
2023/07/12 09:08:43;;;;;;;6.95;4.75;;;24.60;97.00;;;;;;5032383;28;20022;-56
2023/07/12 09:11:32;;;;;;;6.72;4.38;;;24.60;97.00;;;;;;5050737;28;20437;-57
2023/07/12 09:14:20;;;;;;;6.85;4.57;;;24.60;96.50;;;;;;5040618;28;20104;-56
2023/07/12 09:17:22;;;;;;;6.00;4.85;;;25.00;96.00;;;;;;5031611;28;20117;-51
2023/07/12 09:20:27;;;;;;;6.38;5.20;;;25.10;95.60;;;;;;5047777;28;20075;-60
2023/07/12 09:23:13;;;;;;;8.52;5.13;;;25.40;95.10;;;;;;5027898;28;20038;-52
2023/07/12 09:25:59;;;;;;;5.82;4.72;;;25.70;95.20;;;;;;5047442;28;20102;-53
2023/07/12 09:28:45;;;;;;;10.40;4.80;;;25.90;94.50;;;;;;5030506;28;20095;-48
2023/07/12 09:31:35;;;;;;;7.68;4.65;;;26.20;93.90;;;;;;5032867;28;20112;-64
2023/07/12 09:34:26;;;;;;;5.95;4.82;;;26.30;93.50;;;;;;5037336;28;20343;-51
2023/07/12 09:37:15;;;;;;;7.47;4.28;;;26.40;92.90;;;;;;5026100;28;20029;-52
2023/07/12 09:40:03;;;;;;;6.28;4.72;;;26.60;93.20;;;;;;5034568;28;20041;-55
2023/07/12 09:42:49;;;;;;;6.07;4.38;;;26.40;93.60;;;;;;5032336;28;20547;-49
2023/07/12 09:45:36;;;;;;;7.88;4.70;;;26.40;93.00;;;;;;5034008;28;20040;-52
2023/07/12 09:48:40;;;;;;;8.30;4.82;;;26.60;92.60;;;;;;5034515;28;20058;-50
2023/07/12 09:51:33;;;;;;;7.97;5.00;;;26.70;92.70;;;;;;5030738;28;20034;-53
2023/07/12 09:54:47;;;;;;;6.80;4.55;;;26.30;92.90;;;;;;5034366;28;20437;-53
2023/07/12 09:57:53;;;;;;;5.30;4.68;;;26.50;92.50;;;;;;5034267;28;20412;-50
2023/07/12 10:00:51;;;;;;;5.90;4.53;;;26.90;92.10;;;;;;5038773;28;20025;-49
2023/07/12 10:03:41;;;;;;;5.18;4.38;;;27.10;91.40;;;;;;5041561;28;20034;-51
2023/07/12 10:06:33;;;;;;;6.03;4.35;;;26.70;91.80;;;;;;5032616;28;20104;-51
2023/07/12 10:09:35;;;;;;;6.68;5.10;;;26.30;92.60;;;;;;5031057;28;20028;-53
2023/07/12 10:12:35;;;;;;;5.57;4.28;;;26.10;92.60;;;;;;5034780;28;20035;-50
2023/07/12 10:15:23;;;;;;;6.35;4.55;;;26.20;92.30;;;;;;5016669;28;20029;-54
2023/07/12 10:18:23;;;;;;;8.93;5.18;;;26.30;92.30;;;;;;5029027;28;20029;-53
2023/07/12 10:21:17;;;;;;;8.15;5.10;;;26.20;91.70;;;;;;5031836;28;20052;-55
2023/07/12 10:24:06;;;;;;;6.95;5.45;;;26.10;92.10;;;;;;5015814;28;20029;-55
2023/07/12 10:26:52;;;;;;;5.82;4.60;;;26.10;92.60;;;;;;5037586;28;20119;-53
2023/07/12 10:30:02;;;;;;;9.27;4.30;;;26.40;91.70;;;;;;5033524;28;20143;-53
2023/07/12 10:33:11;;;;;;;8.13;4.05;;;26.50;91.00;;;;;;5034728;28;20093;-56
2023/07/12 10:36:04;;;;;;;5.75;3.80;;;26.50;85.70;;;;;;5034604;28;20026;-53
2023/07/12 10:38:51;;;;;;;4.93;3.83;;;26.30;83.20;;;;;;5033670;28;20033;-56
2023/07/12 10:41:47;;;;;;;5.63;3.40;;;26.40;84.30;;;;;;5036752;28;20026;-56
2023/07/12 10:44:39;;;;;;;3.80;2.90;;;26.50;81.70;;;;;;5034009;28;20555;-56
2023/07/12 10:47:34;;;;;;;5.88;3.15;;;26.60;79.30;;;;;;5033783;28;20033;-53
2023/07/12 10:50:26;;;;;;;;;;;26.60;80.10;;;;;;5033889;28;20056;-53
2023/07/12 10:53:23;;;;;;;3.67;2.80;;;26.50;80.20;;;;;;5034739;28;20385;-54
2023/07/12 10:56:10;;;;;;;3.55;2.67;;;26.50;80.40;;;;;;5032060;28;20414;-55
2023/07/12 10:59:24;;;;;;;4.03;2.90;;;26.70;79.80;;;;;;5034110;28;20104;-54
2023/07/12 11:02:20;;;;;;;3.42;2.80;;;26.70;79.70;;;;;;5036032;28;20017;-54
2023/07/12 11:05:36;;;;;;;6.88;2.47;;;26.80;78.40;;;;;;5036358;28;20057;-51
2023/07/12 11:08:31;;;;;;;4.97;2.45;;;26.80;77.60;;;;;;5029257;28;20036;-51
2023/07/12 11:11:17;;;;;;;5.95;2.63;;;26.70;76.80;;;;;;5042540;28;20029;-53
2023/07/12 11:14:17;;;;;;;6.00;2.60;;;26.70;76.80;;;;;;5053756;28;20111;-51
2023/07/12 11:17:03;;;;;;;2.90;2.40;;;26.80;77.00;;;;;;5055866;28;20436;-52
2023/07/12 11:20:06;;;;;;;4.55;2.35;;;26.90;77.00;;;;;;5057426;28;20071;-55
2023/07/12 11:22:55;;;;;;;5.95;2.97;;;26.60;76.40;;;;;;5014212;28;20040;-52
2023/07/12 11:25:44;;;;;;;5.50;2.80;;;26.60;75.50;;;;;;5014246;28;20407;-49
2023/07/12 11:28:42;;;;;;;3.13;2.40;;;26.60;76.20;;;;;;5013021;28;20026;-49
2023/07/12 11:31:32;;;;;;;3.75;2.50;;;26.50;75.50;;;;;;5047718;28;20079;-48
2023/07/12 11:34:23;;;;;;;5.22;2.67;;;26.40;76.60;;;;;;5054956;28;20536;-53
2023/07/12 11:37:17;;;;;;;3.92;2.58;;;26.30;77.80;;;;;;5020075;28;20037;-50
2023/07/12 11:40:20;;;;;;;3.22;2.60;;;26.60;76.40;;;;;;5033604;28;20060;-49
2023/07/12 11:43:24;;;;;;;2.50;2.20;;;26.60;76.00;;;;;;5033238;28;20112;-50
2023/07/12 11:46:14;;;;;;;4.32;2.50;;;26.60;76.10;;;;;;5031723;28;20033;-52
2023/07/12 11:49:17;;;;;;;4.68;2.65;;;26.60;76.00;;;;;;5048626;28;20035;-54
2023/07/12 11:52:11;;;;;;;3.25;2.47;;;26.60;76.40;;;;;;5050564;28;20044;-52
2023/07/12 11:54:57;;;;;;;;;;;26.60;76.10;;;;;;5044467;28;20063;-51
2023/07/12 11:57:45;;;;;;;5.20;2.58;;;26.40;77.00;;;;;;5032007;28;20004;-51
2023/07/12 12:00:33;;;;;;;4.53;3.35;;;26.70;76.40;;;;;;5032656;28;20030;-51
2023/07/12 12:03:19;;;;;;;3.70;2.45;;;27.00;76.60;;;;;;5042398;28;20034;-52
2023/07/12 12:06:06;;;;;;;3.88;2.70;;;27.00;75.70;;;;;;5031557;28;20029;-54
2023/07/12 12:08:54;;;;;;;3.50;2.70;;;26.80;75.90;;;;;;5032367;28;20037;-52
2023/07/12 12:11:40;;;;;;;3.28;2.65;;;27.20;76.50;;;;;;5031506;28;20028;-50
2023/07/12 12:14:31;;;;;;;3.17;2.60;;;27.10;74.50;;;;;;5031015;28;20063;-50
2023/07/12 12:17:23;;;;;;;5.35;2.83;;;26.90;75.20;;;;;;5030926;28;20031;-47
2023/07/12 12:20:32;;;;;;;3.08;2.67;;;26.80;75.10;;;;;;5032064;28;20033;-48
2023/07/12 12:23:39;;;;;;;3.08;2.78;;;27.00;75.50;;;;;;5030321;28;20044;-53
2023/07/12 12:26:31;;;;;;;3.50;2.90;;;27.10;75.20;;;;;;5032299;28;20030;-53
2023/07/12 12:29:21;;;;;;;4.43;2.83;;;27.00;75.10;;;;;;5030765;28;20029;-50
2023/07/12 12:32:15;;;;;;;4.22;2.63;;;27.10;75.00;;;;;;5032759;28;20092;-47
2023/07/12 12:35:01;;;;;;;3.67;2.92;;;27.20;74.70;;;;;;5032936;28;20037;-50
2023/07/12 12:38:17;;;;;;;3.03;2.65;;;27.00;74.80;;;;;;5031445;28;20494;-49
2023/07/12 12:41:14;;;;;;;3.33;2.70;;;26.90;75.70;;;;;;5032093;28;20066;-51
2023/07/12 12:44:27;;;;;;;3.53;2.78;;;27.00;75.50;;;;;;5032517;28;20029;-49
2023/07/12 12:47:19;;;;;;;3.33;2.80;;;27.40;75.10;;;;;;5031079;28;20500;-54
2023/07/12 12:50:17;;;;;;;3.03;2.72;;;27.70;75.30;;;;;;5063669;28;20026;-54
2023/07/12 12:53:05;;;;;;;3.97;2.72;;;27.40;74.80;;;;;;5046206;28;20022;-56
2023/07/12 12:55:50;;;;;;;3.53;2.70;;;27.10;74.50;;;;;;5034573;28;20025;-52
2023/07/12 12:58:37;;;;;;;5.22;2.90;;;27.30;74.30;;;;;;5035006;28;20037;-52
2023/07/12 13:01:22;;;;;;;3.20;2.63;;;27.40;74.30;;;;;;5012318;28;20499;-51
2023/07/12 13:04:09;;;;;;;4.15;2.80;;;27.40;74.70;;;;;;5033152;28;20117;-50
2023/07/12 13:06:55;;;;;;;3.70;2.78;;;27.20;74.90;;;;;;5037275;28;20021;-51
2023/07/12 13:09:41;;;;;;;2.90;2.60;;;27.10;75.10;;;;;;5029455;28;20030;-53
2023/07/12 13:12:28;;;;;;;3.92;2.85;;;27.40;75.10;;;;;;5032013;28;20026;-54
2023/07/12 13:15:19;;;;;;;4.32;3.03;;;27.40;74.60;;;;;;5058591;28;20026;-54
2023/07/12 13:18:08;;;;;;;6.20;2.75;;;27.50;73.90;;;;;;5030931;28;20033;-55
2023/07/12 13:20:55;;;;;;;4.20;2.80;;;27.60;74.00;;;;;;5031646;28;20034;-53
2023/07/12 13:23:41;;;;;;;5.47;2.88;;;27.80;73.80;;;;;;5027588;28;20041;-56
2023/07/12 13:26:27;;;;;;;3.30;3.00;;;27.90;74.10;;;;;;5030590;28;20036;-52
2023/07/12 13:29:19;;;;;;;3.72;2.85;;;28.10;72.50;;;;;;5030895;28;20079;-50
2023/07/12 13:32:13;;;;;;;3.75;2.85;;;27.90;73.00;;;;;;5031213;28;20397;-50
2023/07/12 13:34:59;;;;;;;6.25;2.88;;;27.90;73.40;;;;;;5035192;28;20104;-51
2023/07/12 13:37:45;;;;;;;6.53;3.00;;;27.90;73.80;;;;;;5036064;28;20033;-55
2023/07/12 13:40:31;;;;;;;9.52;3.05;;;27.90;73.80;;;;;;5054385;28;20033;-55
2023/07/12 13:43:18;;;;;;;3.97;3.17;;;28.30;74.00;;;;;;5031355;28;20037;-53
2023/07/12 13:46:15;;;;;;;3.97;2.92;;;28.40;72.70;;;;;;5045987;28;20123;-53
2023/07/12 13:49:02;;;;;;;3.33;2.58;;;28.60;71.50;;;;;;5047265;28;20051;-55
2023/07/12 13:51:48;;;;;;;4.75;2.97;;;28.50;71.20;;;;;;5029209;28;20494;-52
2023/07/12 13:54:36;;;;;;;4.78;3.17;;;28.80;70.50;;;;;;5031280;28;20379;-58
2023/07/12 13:57:30;;;;;;;4.30;2.72;;;28.70;70.50;;;;;;5031278;28;20029;-53
2023/07/12 14:00:21;;;;;;;4.55;2.83;;;28.50;70.60;;;;;;5046405;28;20095;-51
2023/07/12 14:03:09;;;;;;;3.85;3.20;;;28.50;70.60;;;;;;5050421;28;20524;-54
2023/07/12 14:05:55;;;;;;;6.03;2.83;;;28.80;70.50;;;;;;5050110;28;20412;-53
2023/07/12 14:08:41;;;;;;;3.58;2.95;;;29.10;70.40;;;;;;5035808;28;20036;-51
2023/07/12 14:11:31;;;;;;;3.30;2.65;;;29.50;69.30;;;;;;5031344;28;20026;-50
2023/07/12 14:14:17;;;;;;;4.78;2.50;;;29.00;69.10;;;;;;5033781;28;20025;-52
2023/07/12 14:17:03;;;;;;;5.03;3.08;;;28.60;70.30;;;;;;5016029;28;20101;-49
2023/07/12 14:19:54;;;;;;;4.45;2.80;;;29.00;69.80;;;;;;5017416;28;20042;-52
2023/07/12 14:22:42;;;;;;;4.20;2.90;;;28.70;70.00;;;;;;5020543;28;20101;-50
2023/07/12 14:25:27;;;;;;;4.13;3.10;;;28.60;70.10;;;;;;5034753;28;20051;-53
2023/07/12 14:28:13;;;;;;;4.25;2.42;;;28.30;70.50;;;;;;5031879;28;20037;-51
2023/07/12 14:30:59;;;;;;;4.03;3.03;;;28.40;69.90;;;;;;5037703;28;20124;-51
2023/07/12 14:33:46;;;;;;;4.60;3.08;;;28.60;69.70;;;;;;5033470;28;20052;-56